createdAt,value
2018-08-16T00:00:49.541Z,241.50
2018-08-16T00:02:51.570Z,252.47
2018-08-16T00:04:53.554Z,240.90
2018-08-16T00:06:55.529Z,230.18
2018-08-16T00:08:57.544Z,233.97
2018-08-16T00:10:59.526Z,240.12
2018-08-16T00:13:01.521Z,224.40
2018-08-16T00:15:03.553Z,220.37
2018-08-16T00:17:05.530Z,215.22
2018-08-16T00:19:07.534Z,209.87
2018-08-16T00:21:09.552Z,204.97
2018-08-16T00:23:11.585Z,202.28
2018-08-16T00:25:13.622Z,207.50
2018-08-16T00:27:15.645Z,199.75
2018-08-16T00:29:17.635Z,197.72
2018-08-16T00:31:19.646Z,196.40
2018-08-16T00:33:21.677Z,187.55
2018-08-16T00:35:23.670Z,180.93
2018-08-16T00:37:25.649Z,181.72
2018-08-16T00:39:27.646Z,177.32
2018-08-16T00:41:29.686Z,178.87
2018-08-16T00:43:31.657Z,162.92
2018-08-16T00:45:33.654Z,165.97
2018-08-16T00:47:35.680Z,165.92
2018-08-16T00:49:37.680Z,157.85
2018-08-16T00:51:39.697Z,155.15
2018-08-16T00:53:41.674Z,154.80
2018-08-16T00:55:43.704Z,155.27
2018-08-16T00:57:45.688Z,150.32
2018-08-16T00:59:47.663Z,141.03
2018-08-16T01:01:49.684Z,142.77
2018-08-16T01:03:51.692Z,132.63
2018-08-16T01:05:53.716Z,138.47
2018-08-16T01:07:55.695Z,134.22
2018-08-16T01:09:57.730Z,125.35
2018-08-16T01:11:59.734Z,126.50
2018-08-16T01:14:01.718Z,121.72
2018-08-16T01:16:03.748Z,126.87
2018-08-16T01:18:05.728Z,125.95
2018-08-16T01:20:07.752Z,112.65
2018-08-16T01:22:10.101Z,114.72
2018-08-16T01:24:12.118Z,109.35
2018-08-16T01:26:14.102Z,105.58
2018-08-16T01:28:16.076Z,106.85
2018-08-16T01:30:18.082Z,102.10
2018-08-16T01:32:20.098Z,101.45
2018-08-16T01:34:22.108Z,106.72
2018-08-16T01:36:24.154Z,101.85
2018-08-16T01:38:26.136Z,92.78
2018-08-16T01:40:28.108Z,91.80
2018-08-16T01:42:30.108Z,91.70
2018-08-16T01:44:32.086Z,91.32
2018-08-16T01:46:34.086Z,89.60
2018-08-16T01:48:36.080Z,85.95
2018-08-16T01:50:38.100Z,84.83
2018-08-16T01:52:40.078Z,82.85
2018-08-16T01:54:42.101Z,81.15
2018-08-16T01:56:44.101Z,84.52
2018-08-16T01:58:46.115Z,83.05
2018-08-16T02:00:48.096Z,81.17
2018-08-16T02:02:50.082Z,79.58
2018-08-16T02:04:52.091Z,75.30
2018-08-16T02:06:54.104Z,73.17
2018-08-16T02:08:56.093Z,71.15
2018-08-16T02:10:58.096Z,68.57
2018-08-16T02:13:00.066Z,70.08
2018-08-16T02:15:02.086Z,71.33
2018-08-16T02:17:04.098Z,65.55
2018-08-16T02:19:06.094Z,66.95
2018-08-16T02:21:08.127Z,61.37
2018-08-16T02:23:10.111Z,65.15
2018-08-16T02:25:12.108Z,60.15
2018-08-16T02:27:14.135Z,63.98
2018-08-16T02:29:16.137Z,61.80
2018-08-16T02:31:18.098Z,61.65
2018-08-16T02:33:20.108Z,58.00
2018-08-16T02:35:22.102Z,105.20
2018-08-16T02:37:24.129Z,193.05
2018-08-16T02:39:26.122Z,342.00
2018-08-16T02:41:28.108Z,395.18
2018-08-16T02:43:30.121Z,379.90
2018-08-16T02:45:32.100Z,348.77
2018-08-16T02:47:34.080Z,354.80
2018-08-16T02:49:36.071Z,311.35
2018-08-16T02:51:38.068Z,299.12
2018-08-16T02:53:40.040Z,289.90
2018-08-16T02:55:42.058Z,281.23
2018-08-16T02:57:44.073Z,265.60
2018-08-16T02:59:46.075Z,271.65
2018-08-16T03:01:48.052Z,266.57
2018-08-16T03:03:50.078Z,229.38
2018-08-16T03:05:52.089Z,267.05
2018-08-16T03:07:54.123Z,265.55
2018-08-16T03:09:56.115Z,237.38
2018-08-16T03:11:58.158Z,247.93
2018-08-16T03:14:00.141Z,233.85
2018-08-16T03:16:02.156Z,220.15
2018-08-16T03:18:04.141Z,185.65
2018-08-16T03:20:06.172Z,193.35
2018-08-16T03:22:08.148Z,186.45
2018-08-16T03:24:10.130Z,191.65
2018-08-16T03:26:12.129Z,165.75
2018-08-16T03:28:14.138Z,163.82
2018-08-16T03:30:16.158Z,156.20
2018-08-16T03:32:18.140Z,157.75
2018-08-16T03:34:20.156Z,143.37
2018-08-16T03:36:22.150Z,135.78
2018-08-16T03:38:24.155Z,148.15
2018-08-16T03:40:26.141Z,138.68
2018-08-16T03:42:28.114Z,141.55
2018-08-16T03:44:30.134Z,130.60
2018-08-16T03:46:32.118Z,125.92
2018-08-16T03:48:34.136Z,120.90
2018-08-16T03:50:36.119Z,118.42
2018-08-16T03:52:38.130Z,121.57
2018-08-16T03:54:40.160Z,114.52
2018-08-16T03:56:42.141Z,106.92
2018-08-16T03:58:44.158Z,105.55
2018-08-16T04:00:46.143Z,108.83
2018-08-16T04:02:48.176Z,109.97
2018-08-16T04:04:50.189Z,103.50
2018-08-16T04:06:52.167Z,99.92
2018-08-16T04:08:54.184Z,105.25
2018-08-16T04:10:56.214Z,95.22
2018-08-16T04:12:58.190Z,96.20
2018-08-16T04:15:00.193Z,88.20
2018-08-16T04:17:02.173Z,88.45
2018-08-16T04:19:04.188Z,90.57
2018-08-16T04:21:06.158Z,89.20
2018-08-16T04:23:08.178Z,84.40
2018-08-16T04:25:10.190Z,83.52
2018-08-16T04:27:12.220Z,78.47
2018-08-16T04:29:14.244Z,75.92
2018-08-16T04:31:16.194Z,77.35
2018-08-16T04:33:18.190Z,73.87
2018-08-16T04:35:20.203Z,75.83
2018-08-16T04:37:22.176Z,69.42
2018-08-16T04:39:24.148Z,74.70
2018-08-16T04:41:26.153Z,69.75
2018-08-16T04:43:28.152Z,69.55
2018-08-16T04:45:30.120Z,64.22
2018-08-16T04:47:32.248Z,66.67
2018-08-16T04:49:34.234Z,62.98
2018-08-16T04:51:36.202Z,66.60
2018-08-16T04:53:38.209Z,63.17
2018-08-16T04:55:40.188Z,60.28
2018-08-16T04:57:42.194Z,58.65
2018-08-16T04:59:44.172Z,63.70
2018-08-16T05:01:46.174Z,64.95
2018-08-16T05:03:48.201Z,60.10
2018-08-16T05:05:50.193Z,61.02
2018-08-16T05:07:52.205Z,61.63
2018-08-16T05:09:54.178Z,59.40
2018-08-16T05:11:56.179Z,60.60
2018-08-16T05:13:58.184Z,60.15
2018-08-16T05:16:00.180Z,58.17
2018-08-16T05:18:02.146Z,59.05
2018-08-16T05:20:04.155Z,57.62
2018-08-16T05:22:06.175Z,55.70
2018-08-16T05:24:08.197Z,56.13
2018-08-16T05:26:10.184Z,53.30
2018-08-16T05:28:12.198Z,52.15
2018-08-16T05:30:14.171Z,53.95
2018-08-16T05:32:16.185Z,53.25
2018-08-16T05:34:18.205Z,52.53
2018-08-16T05:36:20.179Z,50.30
2018-08-16T05:38:22.197Z,50.95
2018-08-16T05:40:24.187Z,51.70
2018-08-16T05:42:26.225Z,52.00
2018-08-16T05:44:28.223Z,47.55
2018-08-16T05:46:30.231Z,47.45
2018-08-16T05:48:32.247Z,48.87
2018-08-16T05:50:34.241Z,45.78
2018-08-16T05:52:36.219Z,46.00
2018-08-16T05:54:38.225Z,44.73
2018-08-16T05:56:40.219Z,45.03
2018-08-16T05:58:42.205Z,42.27
2018-08-16T06:00:44.209Z,42.98
2018-08-16T06:02:46.236Z,41.90
2018-08-16T06:04:48.334Z,37.95
2018-08-16T06:06:50.311Z,68.67
2018-08-16T06:08:52.319Z,168.43
2018-08-16T06:10:54.376Z,127.12
2018-08-16T06:12:56.634Z,129.05
2018-08-16T06:14:58.599Z,59.60
2018-08-16T06:17:00.604Z,32.38
2018-08-16T06:19:02.594Z,33.70
2018-08-16T06:21:04.605Z,21.10
2018-08-16T06:23:06.623Z,29.65
2018-08-16T06:25:08.607Z,24.77
2018-08-16T06:27:10.623Z,19.20
2018-08-16T06:29:12.647Z,19.07
2018-08-16T06:31:14.743Z,71.53
2018-08-16T06:33:17.022Z,62.23
2018-08-16T06:35:19.022Z,48.35
2018-08-16T06:37:21.043Z,23.90
2018-08-16T06:39:23.028Z,15.70
2018-08-16T06:41:25.052Z,14.53
2018-08-16T06:43:27.042Z,21.70
2018-08-16T06:45:29.072Z,24.10
2018-08-16T06:47:31.092Z,23.67
2018-08-16T06:49:33.072Z,22.67
2018-08-16T06:51:35.062Z,17.37
2018-08-16T06:53:37.129Z,14.98
2018-08-16T06:55:39.152Z,31.50
2018-08-16T06:57:41.536Z,258.63
2018-08-16T06:59:43.513Z,123.47
2018-08-16T07:01:45.510Z,63.23
2018-08-16T07:03:47.513Z,55.20
2018-08-16T07:05:49.506Z,24.80
2018-08-16T07:07:51.517Z,15.80
2018-08-16T07:09:53.532Z,13.93
2018-08-16T07:11:55.623Z,16.32
2018-08-16T07:13:57.579Z,9.93
2018-08-16T07:15:59.601Z,9.48
2018-08-16T07:18:01.613Z,7.30
2018-08-16T07:20:03.583Z,11.93
2018-08-16T07:22:05.596Z,6.37
2018-08-16T07:24:07.577Z,5.25
2018-08-16T07:26:09.581Z,5.03
2018-08-16T07:28:11.630Z,4.95
2018-08-16T07:30:13.651Z,39.45
2018-08-16T07:32:15.667Z,424.48
2018-08-16T07:34:17.685Z,163.00
2018-08-16T07:36:19.717Z,20.27
2018-08-16T07:38:21.728Z,20.30
2018-08-16T07:40:23.716Z,12.05
2018-08-16T07:42:25.740Z,10.20
2018-08-16T07:44:27.720Z,77.00
2018-08-16T07:46:29.833Z,1015.83
2018-08-16T07:48:32.101Z,107.67
2018-08-16T07:50:34.134Z,86.15
2018-08-16T07:52:36.070Z,65.03
2018-08-16T07:54:38.085Z,83.20
2018-08-16T07:56:40.067Z,60.70
2018-08-16T07:58:42.044Z,57.08
2018-08-16T08:00:44.064Z,27.40
2018-08-16T08:02:46.110Z,84.45
2018-08-16T08:04:48.083Z,79.00
2018-08-16T08:06:50.089Z,71.57
2018-08-16T08:08:52.127Z,122.87
2018-08-16T08:10:54.469Z,110.50
2018-08-16T08:12:56.457Z,81.67
2018-08-16T08:14:58.473Z,44.08
2018-08-16T08:17:00.455Z,55.40
2018-08-16T08:19:02.468Z,62.03
2018-08-16T08:21:04.493Z,57.20
2018-08-16T08:23:06.462Z,71.90
2018-08-16T08:25:08.445Z,107.55
2018-08-16T08:27:10.478Z,130.32
2018-08-16T08:29:12.457Z,143.57
2018-08-16T08:31:14.482Z,156.60
2018-08-16T08:33:16.469Z,153.18
2018-08-16T08:35:18.491Z,150.25
2018-08-16T08:37:20.480Z,143.65
2018-08-16T08:39:22.479Z,167.85
2018-08-16T08:41:24.501Z,143.32
2018-08-16T08:43:26.532Z,148.50
2018-08-16T08:45:28.544Z,113.50
2018-08-16T08:47:30.576Z,109.27
2018-08-16T08:49:32.565Z,97.10
2018-08-16T08:51:34.548Z,99.50
2018-08-16T08:53:36.582Z,115.88
2018-08-16T08:55:38.628Z,133.47
2018-08-16T08:57:40.615Z,129.15
2018-08-16T08:59:42.636Z,148.35
2018-08-16T09:01:44.675Z,113.72
2018-08-16T09:03:46.698Z,116.70
2018-08-16T09:05:48.740Z,133.57
2018-08-16T09:07:50.696Z,135.07
2018-08-16T09:09:52.766Z,141.43
2018-08-16T09:11:54.791Z,126.97
2018-08-16T09:13:56.823Z,117.60
2018-08-16T09:15:58.806Z,161.90
2018-08-16T09:18:00.894Z,166.68
2018-08-16T09:20:02.915Z,177.15
2018-08-16T09:22:04.919Z,203.77
2018-08-16T09:24:06.966Z,186.65
2018-08-16T09:26:08.912Z,162.85
2018-08-16T09:28:10.886Z,157.62
2018-08-16T09:30:12.915Z,171.85
2018-08-16T09:32:14.908Z,159.80
2018-08-16T09:34:16.886Z,165.50
2018-08-16T09:36:18.907Z,182.50
2018-08-16T09:38:20.938Z,184.40
2018-08-16T09:40:22.923Z,197.57
2018-08-16T09:42:24.904Z,167.53
2018-08-16T09:44:26.922Z,190.12
2018-08-16T09:46:28.969Z,164.43
2018-08-16T09:48:31.011Z,214.80
2018-08-16T09:50:33.028Z,265.05
2018-08-16T09:52:35.059Z,195.00
2018-08-16T09:54:37.041Z,166.07
2018-08-16T09:56:39.050Z,203.62
2018-08-16T09:58:41.065Z,210.80
2018-08-16T10:00:43.055Z,221.97
2018-08-16T10:02:45.075Z,178.50
2018-08-16T10:04:47.110Z,161.25
2018-08-16T10:06:49.122Z,135.50
2018-08-16T10:08:51.153Z,136.95
2018-08-16T10:10:53.135Z,129.35
2018-08-16T10:12:55.151Z,108.55
2018-08-16T10:14:57.124Z,112.97
2018-08-16T10:16:59.118Z,109.83
2018-08-16T10:19:01.134Z,152.38
2018-08-16T10:21:03.128Z,138.90
2018-08-16T10:23:05.113Z,180.55
2018-08-16T10:25:07.135Z,143.30
2018-08-16T10:27:09.268Z,139.57
2018-08-16T10:29:11.584Z,130.47
2018-08-16T10:31:13.588Z,136.37
2018-08-16T10:33:15.581Z,115.77
2018-08-16T10:35:17.602Z,109.10
2018-08-16T10:37:19.596Z,101.45
2018-08-16T10:39:21.588Z,96.82
2018-08-16T10:41:23.606Z,163.85
2018-08-16T10:43:25.590Z,166.97
2018-08-16T10:45:27.622Z,238.35
2018-08-16T10:47:29.592Z,150.10
2018-08-16T10:49:31.651Z,150.65
2018-08-16T10:51:33.644Z,1999.90
2018-08-16T10:53:35.616Z,283.05
2018-08-16T10:55:37.642Z,250.50
2018-08-16T10:57:39.627Z,224.18
2018-08-16T10:59:41.632Z,261.65
2018-08-16T11:01:43.629Z,165.88
2018-08-16T11:03:45.605Z,163.77
2018-08-16T11:05:47.636Z,117.30
2018-08-16T11:07:49.622Z,144.37
2018-08-16T11:09:51.581Z,134.10
2018-08-16T11:11:53.604Z,144.40
2018-08-16T11:13:55.589Z,131.35
2018-08-16T11:15:57.611Z,165.20
2018-08-16T11:17:59.636Z,139.00
2018-08-16T11:20:01.674Z,104.43
2018-08-16T11:22:04.039Z,135.57
2018-08-16T11:24:06.009Z,113.75
2018-08-16T11:26:08.036Z,97.27
2018-08-16T11:28:10.604Z,104.87
2018-08-16T11:30:12.652Z,270.60
2018-08-16T11:32:14.644Z,131.43
2018-08-16T11:34:16.707Z,142.37
2018-08-16T11:36:18.711Z,131.18
2018-08-16T11:38:20.698Z,229.68
2018-08-16T11:40:22.692Z,190.75
2018-08-16T11:42:24.673Z,257.83
2018-08-16T11:44:26.772Z,172.93
2018-08-16T11:46:28.786Z,139.43
2018-08-16T11:48:30.731Z,154.55
2018-08-16T11:50:32.761Z,138.95
2018-08-16T11:52:34.729Z,139.12
2018-08-16T11:54:36.793Z,111.03
2018-08-16T11:56:38.793Z,122.15
2018-08-16T11:58:40.871Z,153.97
2018-08-16T12:00:42.940Z,126.20
2018-08-16T12:02:44.915Z,113.00
2018-08-16T12:04:46.916Z,110.70
2018-08-16T12:06:49.947Z,136.82
2018-08-16T12:08:51.915Z,105.50
2018-08-16T12:10:53.941Z,105.97
2018-08-16T12:12:55.966Z,118.17
2018-08-16T12:14:57.952Z,119.80
2018-08-16T12:16:59.955Z,107.40
2018-08-16T12:19:02.004Z,90.53
2018-08-16T12:21:04.033Z,90.05
2018-08-16T12:23:06.040Z,84.60
2018-08-16T12:25:08.073Z,78.00
2018-08-16T12:27:10.083Z,74.17
2018-08-16T12:29:12.337Z,87.00
2018-08-16T12:31:14.327Z,59.25
2018-08-16T12:33:16.347Z,33.40
2018-08-16T12:35:18.335Z,34.43
2018-08-16T12:37:20.698Z,15.13
2018-08-16T12:39:22.717Z,24.43
2018-08-16T12:41:24.708Z,10.25
2018-08-16T12:43:26.728Z,9.03
2018-08-16T12:45:28.707Z,5.10
2018-08-16T12:47:30.699Z,8.50
2018-08-16T12:49:32.671Z,7.33
2018-08-16T12:51:34.645Z,5.90
2018-08-16T12:53:36.666Z,7.92
2018-08-16T12:55:38.623Z,6.35
2018-08-16T12:57:40.579Z,7.20
2018-08-16T12:59:42.613Z,6.37
2018-08-16T13:01:44.678Z,6.92
2018-08-16T13:03:46.662Z,6.60
2018-08-16T13:05:48.631Z,105.87
2018-08-16T13:07:50.648Z,213.55
2018-08-16T13:09:52.630Z,146.82
2018-08-16T13:11:54.654Z,72.37
2018-08-16T13:13:56.670Z,85.45
2018-08-16T13:15:58.687Z,65.75
2018-08-16T13:18:00.698Z,49.67
2018-08-16T13:20:02.710Z,26.48
2018-08-16T13:22:04.740Z,12.45
2018-08-16T13:24:06.720Z,13.83
2018-08-16T13:26:08.721Z,38.30
2018-08-16T13:28:10.712Z,138.68
2018-08-16T13:30:12.736Z,114.30
2018-08-16T13:32:14.723Z,71.22
2018-08-16T13:34:16.737Z,77.97
2018-08-16T13:36:18.785Z,64.42
2018-08-16T13:38:20.824Z,59.50
2018-08-16T13:40:22.818Z,52.85
2018-08-16T13:42:24.887Z,296.82
2018-08-16T13:44:26.872Z,160.52
2018-08-16T13:46:28.867Z,271.07
2018-08-16T13:48:30.937Z,123.82
2018-08-16T13:50:33.278Z,84.45
2018-08-16T13:52:35.257Z,72.50
2018-08-16T13:54:37.294Z,45.30
2018-08-16T13:56:39.280Z,41.58
2018-08-16T13:58:41.317Z,19.45
2018-08-16T14:00:43.302Z,18.35
2018-08-16T14:02:45.291Z,43.25
2018-08-16T14:04:47.286Z,197.28
2018-08-16T14:06:49.305Z,81.95
2018-08-16T14:08:51.332Z,71.53
2018-08-16T14:10:53.319Z,73.70
2018-08-16T14:12:55.395Z,397.10
2018-08-16T14:14:57.326Z,151.25
2018-08-16T14:16:59.317Z,89.77
2018-08-16T14:19:01.483Z,84.65
2018-08-16T14:21:03.477Z,57.43
2018-08-16T14:23:05.445Z,26.75
2018-08-16T14:25:07.466Z,35.65
2018-08-16T14:27:09.458Z,892.73
2018-08-16T14:29:11.491Z,412.90
2018-08-16T14:31:13.499Z,175.55
2018-08-16T14:33:15.495Z,100.78
2018-08-16T14:35:17.487Z,121.85
2018-08-16T14:37:19.504Z,64.82
2018-08-16T14:39:21.480Z,63.35
2018-08-16T14:41:23.463Z,55.75
2018-08-16T14:43:25.460Z,22.77
2018-08-16T14:45:27.430Z,75.17
2018-08-16T14:47:29.448Z,323.90
2018-08-16T14:49:31.485Z,335.32
2018-08-16T14:51:33.481Z,68.75
2018-08-16T14:53:35.477Z,39.73
2018-08-16T14:55:37.439Z,34.92
2018-08-16T14:57:39.476Z,14.38
2018-08-16T14:59:41.465Z,35.45
2018-08-16T15:01:43.497Z,44.35
2018-08-16T15:03:45.469Z,50.40
2018-08-16T15:05:47.490Z,37.25
2018-08-16T15:07:49.487Z,40.60
2018-08-16T15:09:51.470Z,41.08
2018-08-16T15:11:53.508Z,40.73
2018-08-16T15:13:55.480Z,36.40
2018-08-16T15:15:57.461Z,37.30
2018-08-16T15:17:59.480Z,49.48
2018-08-16T15:20:01.475Z,45.92
2018-08-16T15:22:03.507Z,36.50
2018-08-16T15:24:05.481Z,36.93
2018-08-16T15:26:07.474Z,37.30
2018-08-16T15:28:09.490Z,34.85
2018-08-16T15:30:11.516Z,60.40
2018-08-16T15:32:13.513Z,117.37
2018-08-16T15:34:15.486Z,168.05
2018-08-16T15:36:17.496Z,189.13
2018-08-16T15:38:19.536Z,215.90
2018-08-16T15:40:21.493Z,212.55
2018-08-16T15:42:23.479Z,300.48
2018-08-16T15:44:25.505Z,792.08
2018-08-16T15:46:27.487Z,221.90
2018-08-16T15:48:29.516Z,270.05
2018-08-16T15:50:31.504Z,340.20
2018-08-16T15:52:33.531Z,346.00
2018-08-16T15:54:35.507Z,369.23
2018-08-16T15:56:37.505Z,359.37
2018-08-16T15:58:40.437Z,343.90
2018-08-16T16:00:42.429Z,326.45
2018-08-16T16:02:44.464Z,317.75
2018-08-16T16:04:46.485Z,282.53
2018-08-16T16:06:48.521Z,273.35
2018-08-16T16:08:50.545Z,258.07
2018-08-16T16:10:52.549Z,252.07
2018-08-16T16:12:54.510Z,271.70
2018-08-16T16:14:56.566Z,330.60
2018-08-16T16:16:58.515Z,304.27
2018-08-16T16:19:00.553Z,316.85
2018-08-16T16:21:02.582Z,308.02
2018-08-16T16:23:04.572Z,300.15
2018-08-16T16:25:06.546Z,293.42
2018-08-16T16:27:08.589Z,273.02
2018-08-16T16:29:11.390Z,258.87
2018-08-16T16:31:13.429Z,262.35
2018-08-16T16:33:15.430Z,243.33
2018-08-16T16:35:17.451Z,227.68
2018-08-16T16:37:19.478Z,216.38
2018-08-16T16:39:21.474Z,207.50
2018-08-16T16:41:23.493Z,208.93
2018-08-16T16:43:25.513Z,199.20
2018-08-16T16:45:27.511Z,196.75
2018-08-16T16:47:29.538Z,181.50
2018-08-16T16:49:31.528Z,192.43
2018-08-16T16:51:33.531Z,253.75
2018-08-16T16:53:35.571Z,284.37
2018-08-16T16:55:37.540Z,298.02
2018-08-16T16:57:39.557Z,273.38
2018-08-16T16:59:41.555Z,364.90
2018-08-16T17:01:43.537Z,312.48
2018-08-16T17:03:45.591Z,292.98
2018-08-16T17:05:47.595Z,260.23
2018-08-16T17:07:49.578Z,248.93
2018-08-16T17:09:51.605Z,225.75
2018-08-16T17:11:53.603Z,227.87
2018-08-16T17:13:55.650Z,214.93
2018-08-16T17:15:57.634Z,281.93
2018-08-16T17:17:59.669Z,265.40
2018-08-16T17:20:01.647Z,270.55
2018-08-16T17:22:03.678Z,350.48
2018-08-16T17:24:05.688Z,325.40
2018-08-16T17:26:07.762Z,380.48
2018-08-16T17:28:09.678Z,440.45
2018-08-16T17:30:11.713Z,446.25
2018-08-16T17:32:13.776Z,423.30
2018-08-16T17:34:15.772Z,416.50
2018-08-16T17:36:17.761Z,397.72
2018-08-16T17:38:19.751Z,414.55
2018-08-16T17:40:21.792Z,380.60
2018-08-16T17:42:23.844Z,362.98
2018-08-16T17:44:25.991Z,324.52
2018-08-16T17:46:27.960Z,313.30
2018-08-16T17:48:29.986Z,364.55
2018-08-16T17:50:31.999Z,396.40
2018-08-16T17:52:34.025Z,422.87
2018-08-16T17:54:36.028Z,394.05
2018-08-16T17:56:38.011Z,400.57
2018-08-16T17:58:40.049Z,401.27
2018-08-16T18:00:42.115Z,405.18
2018-08-16T18:02:44.067Z,378.90
2018-08-16T18:04:46.092Z,374.42
2018-08-16T18:06:48.083Z,375.98
2018-08-16T18:08:50.105Z,404.80
2018-08-16T18:10:52.155Z,383.65
2018-08-16T18:12:54.552Z,387.40
2018-08-16T18:14:56.542Z,390.02
2018-08-16T18:16:58.578Z,391.42
2018-08-16T18:19:00.558Z,394.10
2018-08-16T18:21:02.600Z,387.23
2018-08-16T18:23:04.630Z,384.15
2018-08-16T18:25:06.606Z,394.27
2018-08-16T18:27:08.631Z,387.02
2018-08-16T18:29:10.682Z,384.55
2018-08-16T18:31:13.614Z,387.15
2018-08-16T18:33:15.777Z,390.85
2018-08-16T18:35:17.745Z,398.35
2018-08-16T18:37:19.737Z,383.45
2018-08-16T18:39:21.760Z,380.70
2018-08-16T18:41:23.769Z,382.62
2018-08-16T18:43:25.770Z,370.77
2018-08-16T18:45:27.769Z,373.20
2018-08-16T18:47:29.862Z,363.00
2018-08-16T18:49:31.904Z,362.02
2018-08-16T18:51:33.901Z,963.35
2018-08-16T18:53:35.945Z,394.45
2018-08-16T18:55:38.228Z,407.10
2018-08-16T18:57:40.260Z,450.10
2018-08-16T18:59:42.259Z,470.12
2018-08-16T19:01:44.286Z,472.55
2018-08-16T19:03:46.301Z,463.22
2018-08-16T19:05:48.351Z,473.88
2018-08-16T19:07:50.410Z,462.72
2018-08-16T19:09:52.458Z,450.57
2018-08-16T19:11:54.478Z,482.77
2018-08-16T19:13:56.463Z,460.93
2018-08-16T19:15:58.493Z,456.45
2018-08-16T19:18:00.480Z,446.00
2018-08-16T19:20:02.478Z,443.05
2018-08-16T19:22:04.467Z,435.75
2018-08-16T19:24:06.496Z,437.52
2018-08-16T19:26:08.528Z,662.12
2018-08-16T19:28:10.536Z,475.25
2018-08-16T19:30:12.558Z,454.85
2018-08-16T19:32:14.555Z,489.52
2018-08-16T19:34:16.590Z,495.90
2018-08-16T19:36:18.578Z,504.40
2018-08-16T19:38:20.594Z,494.65
2018-08-16T19:40:22.644Z,513.17
2018-08-16T19:42:24.657Z,502.40
2018-08-16T19:44:26.655Z,638.17
2018-08-16T19:46:28.693Z,528.50
2018-08-16T19:48:30.788Z,517.15
2018-08-16T19:50:32.717Z,568.37
2018-08-16T19:52:34.739Z,564.23
2018-08-16T19:54:36.726Z,572.30
2018-08-16T19:56:38.761Z,573.30
2018-08-16T19:58:40.784Z,581.83
2018-08-16T20:00:42.769Z,615.88
2018-08-16T20:02:44.806Z,590.83
2018-08-16T20:04:46.806Z,551.10
2018-08-16T20:06:48.805Z,553.42
2018-08-16T20:08:51.158Z,570.95
2018-08-16T20:10:53.208Z,563.80
2018-08-16T20:12:55.631Z,565.17
2018-08-16T20:14:57.618Z,581.90
2018-08-16T20:16:59.641Z,576.82
2018-08-16T20:19:01.647Z,603.77
2018-08-16T20:21:03.648Z,647.95
2018-08-16T20:23:05.677Z,660.23
2018-08-16T20:25:07.698Z,657.88
2018-08-16T20:27:09.714Z,680.83
2018-08-16T20:29:11.720Z,644.17
2018-08-16T20:31:13.700Z,638.35
2018-08-16T20:33:15.753Z,631.63
2018-08-16T20:35:17.804Z,602.70
2018-08-16T20:37:19.801Z,630.37
2018-08-16T20:39:21.795Z,666.90
2018-08-16T20:41:23.824Z,688.00
2018-08-16T20:43:25.830Z,694.02
2018-08-16T20:45:27.883Z,707.20
2018-08-16T20:47:29.927Z,694.92
2018-08-16T20:49:31.907Z,687.02
2018-08-16T20:51:33.904Z,691.92
2018-08-16T20:53:35.923Z,675.15
2018-08-16T20:55:37.950Z,681.35
2018-08-16T20:57:39.950Z,772.67
2018-08-16T20:59:41.937Z,698.02
2018-08-16T21:01:43.972Z,718.30
2018-08-16T21:03:45.968Z,730.87
2018-08-16T21:05:47.966Z,686.28
2018-08-16T21:07:49.981Z,720.77
2018-08-16T21:09:51.971Z,722.40
2018-08-16T21:11:53.998Z,1499.25
2018-08-16T21:13:56.101Z,727.37
2018-08-16T21:15:58.124Z,740.73
2018-08-16T21:18:00.196Z,754.85
2018-08-16T21:20:02.178Z,751.60
2018-08-16T21:22:04.197Z,760.37
2018-08-16T21:24:06.232Z,753.65
2018-08-16T21:26:08.251Z,728.67
2018-08-16T21:28:10.292Z,727.35
2018-08-16T21:30:12.360Z,757.95
2018-08-16T21:32:14.351Z,739.70
2018-08-16T21:34:16.360Z,740.50
2018-08-16T21:36:18.360Z,717.37
2018-08-16T21:38:20.372Z,728.65
2018-08-16T21:40:22.369Z,733.53
2018-08-16T21:42:24.389Z,735.60
2018-08-16T21:44:26.384Z,756.83
2018-08-16T21:46:28.403Z,1475.28
2018-08-16T21:48:30.387Z,759.98
2018-08-16T21:50:32.403Z,775.05
2018-08-16T21:52:34.410Z,756.47
2018-08-16T21:54:36.434Z,776.22
2018-08-16T21:56:38.441Z,741.30
2018-08-16T21:58:40.422Z,739.42
2018-08-16T22:00:42.429Z,726.10
2018-08-16T22:02:45.581Z,778.33
2018-08-16T22:04:47.604Z,796.85
2018-08-16T22:06:49.602Z,804.20
2018-08-16T22:08:51.605Z,809.67
2018-08-16T22:10:53.593Z,801.75
2018-08-16T22:12:55.584Z,807.47
2018-08-16T22:14:57.597Z,788.03
2018-08-16T22:16:59.627Z,787.35
2018-08-16T22:19:01.604Z,783.35
2018-08-16T22:21:03.591Z,786.25
2018-08-16T22:23:05.644Z,780.42
2018-08-16T22:25:07.607Z,774.98
2018-08-16T22:27:09.596Z,759.20
2018-08-16T22:29:11.616Z,759.15
2018-08-16T22:31:13.661Z,761.05
2018-08-16T22:33:15.669Z,758.65
2018-08-16T22:35:17.682Z,752.70
2018-08-16T22:37:19.679Z,746.42
2018-08-16T22:39:21.656Z,744.23
2018-08-16T22:41:23.690Z,723.85
2018-08-16T22:43:25.653Z,736.40
2018-08-16T22:45:27.645Z,707.62
2018-08-16T22:47:29.660Z,706.70
2018-08-16T22:49:31.644Z,714.78
2018-08-16T22:51:33.672Z,713.37
2018-08-16T22:53:35.658Z,693.33
2018-08-16T22:55:37.633Z,704.12
2018-08-16T22:57:39.635Z,709.77
2018-08-16T22:59:41.659Z,697.40
2018-08-16T23:01:43.684Z,683.87
2018-08-16T23:03:45.698Z,696.87
2018-08-16T23:05:47.698Z,669.97
2018-08-16T23:07:49.697Z,668.23
2018-08-16T23:09:51.700Z,697.73
2018-08-16T23:11:53.678Z,659.08
2018-08-16T23:13:55.651Z,673.65
2018-08-16T23:15:57.673Z,660.37
2018-08-16T23:17:59.669Z,675.02
2018-08-16T23:20:01.704Z,652.75
2018-08-16T23:22:03.694Z,640.30
2018-08-16T23:24:05.705Z,635.15
2018-08-16T23:26:07.709Z,602.60
2018-08-16T23:28:09.722Z,640.50
2018-08-16T23:30:11.718Z,655.37
2018-08-16T23:32:13.754Z,642.67
2018-08-16T23:34:15.738Z,636.50
2018-08-16T23:36:17.716Z,616.83
2018-08-16T23:38:19.720Z,626.42
2018-08-16T23:40:21.751Z,612.45
2018-08-16T23:42:23.745Z,625.10
2018-08-16T23:44:25.737Z,617.12
2018-08-16T23:46:27.767Z,622.80
2018-08-16T23:48:29.777Z,625.72
2018-08-16T23:50:31.736Z,625.48
2018-08-16T23:52:33.754Z,592.15
2018-08-16T23:54:35.776Z,602.83
2018-08-16T23:56:37.784Z,600.55
2018-08-16T23:58:40.094Z,575.50
